createdAt,value
2019-06-07T00:02:02.149Z,99061.06
2019-06-07T00:04:28.597Z,99059.89
2019-06-07T00:06:54.760Z,99067.10
2019-06-07T00:09:22.535Z,99060.34
2019-06-07T00:11:49.248Z,99062.59
2019-06-07T00:14:16.615Z,99055.20
2019-06-07T00:16:43.919Z,99086.16
2019-06-07T00:19:11.934Z,99064.03
2019-06-07T00:22:13.478Z,99056.80
2019-06-07T00:24:08.580Z,98872.41
2019-06-07T00:26:55.086Z,99091.17
2019-06-07T00:29:04.845Z,99064.23
2019-06-07T00:31:31.100Z,99064.58
2019-06-07T00:33:57.791Z,99073.45
2019-06-07T00:36:23.832Z,99071.04
2019-06-07T00:38:49.943Z,99060.83
2019-06-07T00:41:19.311Z,99057.77
2019-06-07T00:43:44.672Z,99059.50
2019-06-07T00:46:14.094Z,99054.14
2019-06-07T00:48:39.311Z,99064.28
2019-06-07T00:51:05.475Z,99064.01
2019-06-07T00:53:32.671Z,99054.33
2019-06-07T00:55:59.355Z,99052.66
2019-06-07T00:58:27.918Z,99059.73
2019-06-07T01:00:54.037Z,99062.24
2019-06-07T01:03:25.201Z,99060.56
2019-06-07T01:05:48.652Z,99053.30
2019-06-07T01:08:16.170Z,99059.76
2019-06-07T01:10:54.679Z,99059.48
2019-06-07T01:13:11.147Z,99078.61
2019-06-07T01:15:37.447Z,99074.14
2019-06-07T01:20:31.978Z,99066.61
2019-06-07T01:22:57.962Z,99064.52
2019-06-07T01:25:26.137Z,99065.39
2019-06-07T01:27:52.561Z,99073.20
2019-06-07T01:30:22.824Z,99064.55
2019-06-07T01:32:47.424Z,99066.92
2019-06-07T01:35:13.566Z,99067.13
2019-06-07T01:37:40.028Z,99063.16
2019-06-07T01:40:07.171Z,99069.59
2019-06-07T01:42:33.196Z,99066.12
2019-06-07T01:44:59.703Z,99067.84
2019-06-07T01:47:31.099Z,99060.12
2019-06-07T01:49:53.987Z,99059.07
2019-06-07T01:52:23.532Z,99072.73
2019-06-07T01:54:57.958Z,99068.91
2019-06-07T01:57:36.606Z,99074.08
2019-06-07T01:59:44.178Z,99064.53
2019-06-07T02:02:10.188Z,99071.21
2019-06-07T02:04:36.569Z,99074.49
2019-06-07T02:07:03.394Z,99077.00
2019-06-07T02:09:31.854Z,99071.30
2019-06-07T02:11:58.938Z,99072.53
2019-06-07T02:14:26.871Z,99069.48
2019-06-07T02:16:53.227Z,99066.41
2019-06-07T02:19:19.521Z,99055.95
2019-06-07T02:21:45.649Z,99049.81
2019-06-07T02:24:11.709Z,99055.09
2019-06-07T02:26:38.824Z,99059.64
2019-06-07T02:29:04.930Z,99059.97
2019-06-07T02:31:38.289Z,99062.99
2019-06-07T02:33:59.183Z,99062.55
2019-06-07T02:36:29.650Z,99051.62
2019-06-07T02:38:53.943Z,99063.56
2019-06-07T02:41:19.855Z,99060.69
2019-06-07T02:43:45.884Z,99064.95
2019-06-07T02:46:38.543Z,99067.73
2019-06-07T02:48:55.745Z,99059.98
2019-06-07T02:51:26.513Z,99053.52
2019-06-07T02:53:50.346Z,99057.27
2019-06-07T02:58:44.846Z,99062.95
2019-06-07T03:01:11.062Z,99073.19
2019-06-07T03:03:39.958Z,99082.19
2019-06-07T03:06:05.143Z,99073.97
2019-06-07T03:08:35.481Z,99069.79
2019-06-07T03:10:59.968Z,99066.71
2019-06-07T03:13:28.940Z,99068.75
2019-06-07T03:15:56.158Z,99069.20
2019-06-07T03:18:29.019Z,99063.22
2019-06-07T03:21:05.471Z,99058.13
2019-06-07T03:23:28.746Z,99059.88
2019-06-07T03:25:57.310Z,99060.20
2019-06-07T03:28:23.310Z,99058.69
2019-06-07T03:31:01.489Z,99068.92
2019-06-07T03:33:17.345Z,99073.09
2019-06-07T03:35:43.277Z,99057.91
2019-06-07T03:38:09.621Z,99069.95
2019-06-07T03:40:39.611Z,99070.73
2019-06-07T03:43:04.007Z,99071.02
2019-06-07T03:45:32.338Z,99080.77
2019-06-07T03:47:58.400Z,99073.64
2019-06-07T03:50:24.477Z,98868.16
2019-06-07T03:52:50.531Z,99083.69
2019-06-07T03:55:16.771Z,99071.28
2019-06-07T04:00:11.276Z,99075.75
2019-06-07T04:02:38.609Z,99078.53
2019-06-07T04:05:05.539Z,99068.30
2019-06-07T04:07:32.972Z,99069.56
2019-06-07T04:09:59.805Z,99065.39
2019-06-07T04:12:28.121Z,99071.86
2019-06-07T04:14:54.829Z,99074.65
2019-06-07T04:17:21.254Z,99069.37
2019-06-07T04:19:47.597Z,98873.95
2019-06-07T04:22:14.327Z,99071.95
2019-06-07T04:24:42.063Z,98663.13
2019-06-07T04:27:08.213Z,99056.70
2019-06-07T04:29:56.710Z,99064.37
2019-06-07T04:32:04.458Z,99054.91
2019-06-07T04:34:34.870Z,99057.63
2019-06-07T04:36:59.763Z,99057.58
2019-06-07T04:39:26.478Z,99064.30
2019-06-07T04:41:54.265Z,99061.23
2019-06-07T04:44:20.904Z,99065.79
2019-06-07T04:46:49.327Z,99066.41
2019-06-07T04:49:16.427Z,99062.97
2019-06-07T04:51:43.358Z,99066.25
2019-06-07T04:54:10.021Z,99067.23
2019-06-07T04:56:38.538Z,99073.16
2019-06-07T04:59:04.848Z,99069.52
2019-06-07T05:01:32.371Z,99072.09
2019-06-07T05:03:58.928Z,99078.09
2019-06-07T05:06:25.269Z,99082.67
2019-06-07T05:08:51.292Z,99096.30
2019-06-07T05:11:17.341Z,99093.01
2019-06-07T05:13:44.610Z,99090.34
2019-06-07T05:16:10.769Z,99103.34
2019-06-07T05:18:40.176Z,99097.27
2019-06-07T05:21:05.351Z,99103.25
2019-06-07T05:25:59.373Z,99108.66
2019-06-07T05:28:25.790Z,99106.56
2019-06-07T05:31:08.310Z,99102.72
2019-06-07T05:33:20.599Z,99089.57
2019-06-07T05:35:46.994Z,99079.58
2019-06-07T05:38:13.297Z,99061.34
2019-06-07T05:40:46.105Z,99060.77
2019-06-07T05:43:21.560Z,99053.20
2019-06-07T05:45:47.615Z,99063.06
2019-06-07T05:48:13.937Z,99044.91
2019-06-07T05:50:54.616Z,99043.13
2019-06-07T05:53:09.819Z,99036.82
2019-06-07T05:55:37.938Z,99024.40
2019-06-07T05:58:04.182Z,99038.84
2019-06-07T06:00:30.504Z,99037.76
2019-06-07T06:03:05.300Z,99032.06
2019-06-07T06:05:34.228Z,99032.37
2019-06-07T06:07:53.096Z,99033.29
2019-06-07T06:10:19.100Z,99032.83
2019-06-07T06:12:51.452Z,99033.72
2019-06-07T06:15:13.514Z,99028.94
2019-06-07T06:17:42.747Z,99035.44
2019-06-07T06:20:07.814Z,99033.45
2019-06-07T06:22:34.223Z,99026.77
2019-06-07T06:25:31.072Z,99023.73
2019-06-07T06:28:03.204Z,99031.05
2019-06-07T06:29:57.945Z,99025.84
2019-06-07T06:32:41.823Z,99057.42
2019-06-07T06:34:53.931Z,99030.88
2019-06-07T06:37:20.631Z,99030.52
2019-06-07T06:39:50.036Z,99029.66
2019-06-07T06:42:14.798Z,99033.09
2019-06-07T06:44:43.633Z,99029.94
2019-06-07T06:47:09.106Z,99043.42
2019-06-07T06:49:35.301Z,99035.66
2019-06-07T06:52:02.853Z,99041.25
2019-06-07T06:54:40.628Z,99031.80
2019-06-07T06:57:18.461Z,99032.89
2019-06-07T06:59:38.544Z,99026.28
2019-06-07T07:01:53.356Z,99026.18
2019-06-07T07:04:19.489Z,99033.74
2019-06-07T07:06:47.992Z,99029.14
2019-06-07T07:09:15.896Z,99027.65
2019-06-07T07:11:55.258Z,99018.23
2019-06-07T07:14:10.277Z,99017.60
2019-06-07T07:16:37.121Z,99013.95
2019-06-07T07:19:03.133Z,99042.33
2019-06-07T07:21:29.198Z,99013.87
2019-06-07T07:24:19.729Z,99012.39
2019-06-07T07:26:24.040Z,99006.81
2019-06-07T07:28:51.151Z,99003.42
2019-06-07T07:31:18.213Z,98997.72
2019-06-07T07:34:27.346Z,98991.72
2019-06-07T07:36:28.540Z,98992.36
2019-06-07T07:38:41.204Z,98984.77
2019-06-07T07:41:14.790Z,98980.67
2019-06-07T07:43:35.255Z,98969.78
2019-06-07T07:46:03.293Z,98979.42
2019-06-07T07:48:29.808Z,98963.51
2019-06-07T07:51:00.282Z,98969.82
2019-06-07T07:53:24.509Z,98964.46
2019-06-07T07:55:54.973Z,98966.01
2019-06-07T07:58:19.331Z,98966.41
2019-06-07T08:00:53.117Z,98974.09
2019-06-07T08:03:13.671Z,98976.59
2019-06-07T08:05:42.931Z,98971.94
2019-06-07T08:08:08.646Z,98958.02
2019-06-07T08:10:34.935Z,98970.52
2019-06-07T08:13:22.709Z,98971.39
2019-06-07T08:15:29.740Z,98966.95
2019-06-07T08:18:00.427Z,98970.66
2019-06-07T08:20:23.877Z,98965.09
2019-06-07T08:22:52.478Z,98962.59
2019-06-07T08:25:19.336Z,98965.50
2019-06-07T08:27:46.984Z,98956.61
2019-06-07T08:30:47.325Z,98952.26
2019-06-07T08:32:43.019Z,98940.77
2019-06-07T08:35:09.340Z,98944.55
2019-06-07T08:38:14.048Z,98900.92
2019-06-07T08:40:06.470Z,98950.75
2019-06-07T08:42:37.280Z,98942.52
2019-06-07T08:45:05.038Z,98944.79
2019-06-07T08:47:29.233Z,98941.20
2019-06-07T08:49:59.617Z,98933.91
2019-06-07T08:52:23.624Z,98933.27
2019-06-07T08:54:50.471Z,98930.59
2019-06-07T08:57:21.744Z,98931.89
2019-06-07T08:59:45.972Z,98919.16
2019-06-07T09:02:23.299Z,98918.31
2019-06-07T09:04:40.179Z,98932.98
2019-06-07T09:07:18.886Z,98930.70
2019-06-07T09:09:34.566Z,98927.34
2019-06-07T09:12:08.217Z,98924.99
2019-06-07T09:14:29.480Z,98751.20
2019-06-07T09:17:04.305Z,98918.52
2019-06-07T09:19:24.817Z,98773.60
2019-06-07T09:21:50.924Z,98914.05
2019-06-07T09:24:16.931Z,98910.72
2019-06-07T09:26:43.369Z,98902.95
2019-06-07T09:29:12.011Z,98913.42
2019-06-07T09:31:52.046Z,98912.32
2019-06-07T09:34:13.784Z,98909.95
2019-06-07T09:36:34.392Z,98908.25
2019-06-07T09:39:06.482Z,98899.55
2019-06-07T09:41:46.909Z,98902.77
2019-06-07T09:44:10.691Z,98899.73
2019-06-07T09:46:25.372Z,98904.43
2019-06-07T09:51:20.790Z,98896.82
2019-06-07T09:53:47.377Z,98891.20
2019-06-07T09:56:13.969Z,98896.41
2019-06-07T09:58:51.925Z,98900.12
2019-06-07T10:01:13.217Z,98912.48
2019-06-07T10:03:37.700Z,98894.13
2019-06-07T10:06:12.369Z,98892.91
2019-06-07T10:11:02.551Z,98890.22
2019-06-07T10:13:28.852Z,98882.83
2019-06-07T10:15:55.169Z,98882.85
2019-06-07T10:18:21.397Z,98881.70
2019-06-07T10:20:47.780Z,98880.11
2019-06-07T10:23:14.853Z,98848.63
2019-06-07T10:25:41.110Z,98872.02
2019-06-07T10:28:08.202Z,98870.14
2019-06-07T10:30:34.869Z,98865.26
2019-06-07T10:33:02.217Z,98863.12
2019-06-07T10:35:28.616Z,98863.98
2019-06-07T10:37:58.176Z,98852.39
2019-06-07T10:40:23.851Z,98857.26
2019-06-07T10:42:50.031Z,98859.84
2019-06-07T10:45:16.581Z,98853.05
2019-06-07T10:47:42.878Z,98851.39
2019-06-07T10:50:10.463Z,98853.98
2019-06-07T10:52:36.858Z,98847.22
2019-06-07T10:55:04.597Z,98845.64
2019-06-07T10:57:30.920Z,98842.70
2019-06-07T10:59:57.313Z,98846.45
2019-06-07T11:02:23.630Z,98836.02
2019-06-07T11:04:50.841Z,98853.55
2019-06-07T11:07:17.021Z,98830.45
2019-06-07T11:09:43.474Z,98827.80
2019-06-07T11:12:10.708Z,98822.28
2019-06-07T11:14:37.237Z,98675.41
2019-06-07T11:17:05.117Z,98808.05
2019-06-07T11:19:33.378Z,98809.53
2019-06-07T11:22:04.440Z,98806.55
2019-06-07T11:24:31.375Z,98798.00
2019-06-07T11:26:57.518Z,98775.02
2019-06-07T11:29:24.186Z,98792.42
2019-06-07T11:31:50.799Z,98779.86
2019-06-07T11:34:16.828Z,98784.85
2019-06-07T11:36:43.416Z,98781.77
2019-06-07T11:39:11.097Z,98774.42
2019-06-07T11:41:37.377Z,98775.48
2019-06-07T11:44:04.670Z,98773.72
2019-06-07T11:46:31.575Z,98760.52
2019-06-07T11:48:57.751Z,98764.34
2019-06-07T11:51:25.054Z,98744.56
2019-06-07T11:53:55.565Z,98741.72
2019-06-07T11:56:21.587Z,98739.91
2019-06-07T11:58:48.313Z,98724.98
2019-06-07T12:01:16.654Z,98727.38
2019-06-07T12:03:43.393Z,98721.12
2019-06-07T12:06:11.938Z,98728.55
2019-06-07T12:08:38.203Z,98725.39
2019-06-07T12:11:04.442Z,98721.22
2019-06-07T12:13:30.655Z,98717.22
2019-06-07T12:15:56.787Z,98708.58
2019-06-07T12:18:25.063Z,98706.22
2019-06-07T12:20:52.133Z,98700.66
2019-06-07T12:23:20.132Z,98696.50
2019-06-07T12:25:46.578Z,98687.34
2019-06-07T12:28:14.544Z,98690.15
2019-06-07T12:30:43.474Z,98690.69
2019-06-07T12:33:11.208Z,98570.71
2019-06-07T12:35:38.645Z,98680.95
2019-06-07T12:38:05.942Z,98678.62
2019-06-07T12:40:32.938Z,98456.05
2019-06-07T12:43:01.125Z,98677.33
2019-06-07T12:45:43.811Z,98635.41
2019-06-07T12:47:57.989Z,98651.40
2019-06-07T12:50:41.651Z,98649.77
2019-06-07T12:52:52.812Z,98652.77
2019-06-07T12:55:22.495Z,98649.12
2019-06-07T12:57:49.578Z,98659.27
2019-06-07T13:00:18.226Z,98652.36
2019-06-07T13:02:44.592Z,98645.09
2019-06-07T13:05:11.403Z,98516.56
2019-06-07T13:07:37.602Z,98642.05
2019-06-07T13:10:08.273Z,98639.02
2019-06-07T13:12:34.590Z,98630.58
2019-06-07T13:15:01.357Z,98629.73
2019-06-07T13:17:28.636Z,98624.67
2019-06-07T13:19:54.973Z,98620.42
2019-06-07T13:22:22.290Z,98614.50
2019-06-07T13:24:48.400Z,98615.17
2019-06-07T13:27:16.135Z,98612.58
2019-06-07T13:29:42.447Z,98629.21
2019-06-07T13:32:08.551Z,98617.56
2019-06-07T13:34:35.248Z,98613.75
2019-06-07T13:37:01.293Z,98605.41
2019-06-07T13:39:29.712Z,98612.11
2019-06-07T13:41:55.775Z,98610.83
2019-06-07T13:44:22.882Z,98610.98
2019-06-07T13:46:49.287Z,98601.39
2019-06-07T13:49:17.216Z,98605.08
2019-06-07T13:51:43.776Z,98593.39
2019-06-07T13:54:11.891Z,98585.42
2019-06-07T13:57:01.285Z,98590.12
2019-06-07T13:59:13.732Z,98586.13
2019-06-07T14:01:40.349Z,98582.44
2019-06-07T14:04:07.368Z,98570.30
2019-06-07T14:06:39.421Z,98429.45
2019-06-07T14:09:05.787Z,98568.27
2019-06-07T14:11:49.553Z,98574.13
2019-06-07T14:14:00.657Z,98577.91
2019-06-07T14:16:28.342Z,98569.99
2019-06-07T14:18:54.594Z,98558.52
2019-06-07T14:21:20.837Z,98566.25
2019-06-07T14:23:49.334Z,98560.41
2019-06-07T14:26:15.466Z,98563.88
2019-06-07T14:28:41.604Z,98565.08
2019-06-07T14:31:08.105Z,98568.44
2019-06-07T14:33:34.221Z,98565.83
2019-06-07T14:36:00.402Z,98553.09
2019-06-07T14:38:27.343Z,98557.11
2019-06-07T14:40:53.557Z,98543.61
2019-06-07T14:43:19.834Z,98546.61
2019-06-07T14:45:46.178Z,98540.44
2019-06-07T14:48:12.144Z,98540.75
2019-06-07T14:50:38.209Z,98410.38
2019-06-07T14:53:04.649Z,98532.77
2019-06-07T14:55:31.224Z,98534.08
2019-06-07T14:57:57.539Z,98539.80
2019-06-07T15:40:58.911Z,98369.93
2019-06-07T15:43:25.347Z,98523.66
2019-06-07T15:45:51.526Z,98501.03
2019-06-07T15:48:17.545Z,98510.00
2019-06-07T15:50:43.850Z,98496.04
2019-06-07T15:53:10.048Z,98496.66
2019-06-07T15:55:41.005Z,98491.47
2019-06-07T15:58:04.484Z,98485.77
2019-06-07T16:00:31.318Z,98480.59
2019-06-07T16:02:57.969Z,98474.62
2019-06-07T16:05:24.366Z,98465.89
2019-06-07T16:07:50.442Z,98457.84
2019-06-07T16:10:16.685Z,98454.75
2019-06-07T16:12:58.801Z,98444.09
2019-06-07T16:15:11.340Z,98448.01
2019-06-07T16:17:39.244Z,98430.56
2019-06-07T16:20:05.941Z,98436.18
2019-06-07T16:22:33.446Z,98434.48
2019-06-07T16:25:06.731Z,98434.98
2019-06-07T16:27:34.397Z,98432.20
2019-06-07T16:30:08.743Z,98420.92
2019-06-07T16:32:28.768Z,98418.73
2019-06-07T16:34:54.797Z,98405.91
2019-06-07T16:37:21.196Z,98402.58
2019-06-07T16:39:48.574Z,98399.40
2019-06-07T16:42:14.888Z,98395.38
2019-06-07T16:44:42.525Z,98387.81
2019-06-07T16:47:08.761Z,98384.23
2019-06-07T16:49:34.911Z,98381.52
2019-06-07T16:52:01.938Z,98383.63
2019-06-07T16:54:28.219Z,98375.11
2019-06-07T16:56:54.269Z,98250.97
2019-06-07T16:59:21.033Z,98376.89
2019-06-07T17:01:47.663Z,98374.28
2019-06-07T17:04:13.621Z,98375.80
2019-06-07T17:06:41.688Z,98377.98
2019-06-07T17:09:08.170Z,98375.66
2019-06-07T17:11:34.418Z,98372.33
2019-06-07T17:14:01.041Z,98337.55
2019-06-07T17:16:27.305Z,98368.03
2019-06-07T17:18:53.536Z,98364.45
2019-06-07T17:21:19.437Z,98368.30
2019-06-07T17:23:47.392Z,98371.19
2019-06-07T17:26:13.804Z,98376.69
2019-06-07T17:28:41.644Z,98247.28
2019-06-07T17:31:08.072Z,98372.95
2019-06-07T17:33:34.104Z,98372.56
2019-06-07T17:36:00.218Z,98366.69
2019-06-07T17:38:26.848Z,98362.00
2019-06-07T17:40:53.028Z,98231.72
2019-06-07T17:43:19.294Z,98362.49
2019-06-07T17:45:45.493Z,98367.78
2019-06-07T17:48:12.327Z,98371.63
2019-06-07T17:50:39.634Z,98371.28
2019-06-07T17:53:05.849Z,98389.71
2019-06-07T17:55:32.007Z,98381.00
2019-06-07T17:57:58.165Z,98380.65
2019-06-07T18:00:29.227Z,98377.53
2019-06-07T18:02:55.960Z,98378.76
2019-06-07T18:05:22.940Z,98373.56
2019-06-07T18:07:51.828Z,98363.53
2019-06-07T18:10:39.341Z,98357.38
2019-06-07T18:13:05.643Z,98355.71
2019-06-07T18:15:37.563Z,98360.60
2019-06-07T18:18:03.592Z,98351.08
2019-06-07T18:20:29.842Z,98351.84
2019-06-07T18:22:57.205Z,98349.03
2019-06-07T18:25:23.702Z,98346.88
2019-06-07T18:27:52.666Z,98343.16
2019-06-07T18:30:19.606Z,98351.73
2019-06-07T18:32:46.835Z,98354.33
2019-06-07T18:35:13.397Z,98362.45
2019-06-07T18:37:39.529Z,98372.51
2019-06-07T18:40:08.425Z,98375.37
2019-06-07T18:42:34.668Z,98378.28
2019-06-07T18:45:05.091Z,98381.80
2019-06-07T18:47:33.210Z,98381.10
2019-06-07T18:49:59.323Z,98386.03
2019-06-07T18:52:27.490Z,98382.92
2019-06-07T18:54:54.973Z,98384.23
2019-06-07T18:57:21.101Z,98386.30
2019-06-07T18:59:48.300Z,98387.80
2019-06-07T19:02:25.849Z,98377.87
2019-06-07T19:04:52.341Z,98372.81
2019-06-07T19:07:18.686Z,98391.15
2019-06-07T19:09:44.662Z,98340.69
2019-06-07T19:12:10.971Z,98378.17
2019-06-07T19:14:37.634Z,98373.62
2019-06-07T19:17:03.718Z,98226.79
2019-06-07T19:19:30.155Z,98386.05
2019-06-07T19:21:58.202Z,98385.02
2019-06-07T19:24:24.329Z,98394.56
2019-06-07T19:26:50.686Z,98396.08
2019-06-07T19:29:16.713Z,98400.34
2019-06-07T19:31:42.759Z,98412.05
2019-06-07T19:34:09.189Z,98414.36
2019-06-07T19:36:47.980Z,98432.06
2019-06-07T19:39:07.354Z,98430.98
2019-06-07T19:41:34.192Z,98441.73
2019-06-07T19:44:02.430Z,98450.04
2019-06-07T19:46:28.789Z,98302.41
2019-06-07T19:48:55.089Z,98436.73
2019-06-07T19:51:21.864Z,98431.53
2019-06-07T19:53:49.897Z,98441.72
2019-06-07T19:56:16.662Z,98427.94
2019-06-07T19:58:43.062Z,98427.76
2019-06-07T20:01:09.191Z,98266.34
2019-06-07T20:03:35.459Z,98421.80
2019-06-07T20:09:33.262Z,98409.89
2019-06-07T20:12:00.752Z,98407.02
2019-06-07T20:14:28.826Z,98407.05
2019-06-07T20:16:55.294Z,98419.19
2019-06-07T20:19:21.450Z,98408.64
2019-06-07T20:21:47.572Z,98425.67
2019-06-07T20:24:26.343Z,98403.89
2019-06-07T20:26:42.053Z,98397.02
2019-06-07T20:29:24.981Z,98399.33
2019-06-07T20:31:38.460Z,98404.17
2019-06-07T20:34:05.806Z,98404.41
2019-06-07T20:36:32.269Z,98264.78
2019-06-07T20:39:00.060Z,98417.48
2019-06-07T20:41:29.125Z,98424.87
2019-06-07T20:43:55.402Z,98442.71
2019-06-07T20:46:23.371Z,98469.53
2019-06-07T20:48:50.405Z,98527.45
2019-06-07T20:51:16.581Z,98573.16
2019-06-07T20:53:43.769Z,98593.27
2019-06-07T20:56:10.050Z,98617.12
2019-06-07T20:58:38.236Z,98608.63
2019-06-07T21:01:05.367Z,98626.20
2019-06-07T21:03:34.407Z,98669.43
2019-06-07T21:06:01.369Z,98695.47
2019-06-07T21:08:29.116Z,98715.78
2019-06-07T21:10:56.785Z,98723.95
2019-06-07T21:13:23.620Z,98740.89
2019-06-07T21:15:50.052Z,98760.20
2019-06-07T21:18:19.888Z,98789.75
2019-06-07T21:20:45.541Z,98812.23
2019-06-07T21:40:44.779Z,98926.13
2019-06-07T21:43:12.542Z,98950.55
2019-06-07T21:45:38.997Z,98963.06
2019-06-07T21:48:07.053Z,98966.70
2019-06-07T21:50:33.535Z,98979.22
2019-06-07T21:52:59.553Z,98979.80
2019-06-07T21:55:26.085Z,98986.06
2019-06-07T21:57:52.170Z,98986.55
2019-06-07T22:00:30.568Z,98989.03
2019-06-07T22:02:57.017Z,98976.66
2019-06-07T22:05:23.412Z,98959.55
2019-06-07T22:07:49.801Z,98958.96
2019-06-07T22:10:16.832Z,98929.38
2019-06-07T22:12:43.262Z,98912.34
2019-06-07T22:15:32.054Z,98906.48
2019-06-07T22:17:42.418Z,98909.42
2019-06-07T22:20:08.841Z,98913.48
2019-06-07T22:22:35.262Z,98927.13
2019-06-07T22:25:01.901Z,98950.02
2019-06-07T22:27:28.079Z,98977.80
2019-06-07T22:29:54.678Z,98999.70
2019-06-07T22:32:21.140Z,99013.39
2019-06-07T22:34:47.457Z,99017.80
2019-06-07T22:37:16.447Z,98822.61
2019-06-07T22:39:42.223Z,99029.45
2019-06-07T22:42:08.825Z,99016.73
2019-06-07T22:44:35.040Z,99023.39
2019-06-07T22:47:01.291Z,99039.73
2019-06-07T22:49:27.731Z,99021.89
2019-06-07T22:52:07.944Z,99007.61
2019-06-07T22:54:22.037Z,99001.88
2019-06-07T22:56:52.889Z,98989.52
2019-06-07T22:59:20.618Z,99018.85
2019-06-07T23:01:47.216Z,99055.23
2019-06-07T23:04:16.711Z,99063.91
2019-06-07T23:06:42.987Z,98880.83
2019-06-07T23:09:09.411Z,99039.75
2019-06-07T23:11:35.568Z,99061.43
2019-06-07T23:14:02.519Z,99056.59
2019-06-07T23:16:28.785Z,99064.66
2019-06-07T23:18:55.339Z,99064.54
2019-06-07T23:21:22.654Z,99076.02
2019-06-07T23:23:49.068Z,99085.31
2019-06-07T23:26:16.212Z,99106.36
2019-06-07T23:28:42.762Z,99125.25
2019-06-07T23:31:10.243Z,99115.55
2019-06-07T23:33:38.644Z,99099.97
2019-06-07T23:36:05.035Z,99068.23
2019-06-07T23:38:31.085Z,99040.59
2019-06-07T23:40:57.881Z,98972.12
2019-06-07T23:43:23.857Z,99071.44
2019-06-07T23:45:50.373Z,99080.63
2019-06-07T23:48:17.464Z,99062.40
2019-06-07T23:50:44.552Z,99051.70
2019-06-07T23:53:11.701Z,99049.81
2019-06-07T23:55:37.900Z,99055.64
2019-06-07T23:58:04.310Z,99037.56
